BZA YLIL-YMNG

Flight info

Callsign BZA
Flight time 0h 31m
Altitude 4000
Route DCT LACEY W481 MNG
Aircraft C172/L-SFG/C

Departure

Time 2026-04-13 09:51
Airport Lilydale Airport (YLIL)

Arrival

Time 2026-04-13 10:23
Airport Mangalore Airport (YMNG)
Time Latitude Longitude Altitude Speed Heading
2026-04-13 09:30 -37.69421 145.36842 222 ft 0 kts 275°
2026-04-13 09:46 -37.69421 145.36841 221 ft 1 kts 274°
2026-04-13 09:47 -37.69448 145.36820 225 ft 8 kts 180°
2026-04-13 09:47 -37.69528 145.36817 222 ft 13 kts 189°
2026-04-13 09:47 -37.69622 145.36808 226 ft 14 kts 190°
2026-04-13 09:47 -37.69731 145.36782 223 ft 17 kts 187°
2026-04-13 09:48 -37.69823 145.36767 226 ft 11 kts 191°
2026-04-13 09:48 -37.69896 145.36743 224 ft 8 kts 237°
2026-04-13 09:48 -37.69892 145.36660 222 ft 13 kts 278°
2026-04-13 09:48 -37.69871 145.36553 228 ft 9 kts 296°
2026-04-13 09:49 -37.69839 145.36531 223 ft 3 kts
2026-04-13 09:50 -37.69764 145.36547 221 ft 33 kts 10°
2026-04-13 09:50 -37.69384 145.36624 228 ft 75 kts
2026-04-13 09:50 -37.68838 145.36742 420 ft 79 kts
2026-04-13 09:51 -37.68286 145.36857 584 ft 87 kts
2026-04-13 09:51 -37.67694 145.36962 795 ft 86 kts
2026-04-13 09:51 -37.67144 145.37304 995 ft 93 kts 39°
2026-04-13 09:51 -37.66656 145.37840 1233 ft 94 kts 40°
2026-04-13 09:52 -37.66186 145.38371 1490 ft 91 kts 47°
2026-04-13 09:52 -37.65763 145.38966 1769 ft 89 kts 50°
2026-04-13 09:52 -37.65357 145.39604 1945 ft 96 kts 50°
2026-04-13 09:52 -37.64914 145.40227 2189 ft 95 kts 46°
2026-04-13 09:53 -37.64490 145.40900 2368 ft 100 kts 55°
2026-04-13 09:53 -37.64027 145.41546 2543 ft 104 kts 31°
2026-04-13 09:53 -37.63470 145.42115 2785 ft 97 kts 45°
2026-04-13 09:53 -37.62916 145.42681 2884 ft 105 kts 41°
2026-04-13 09:54 -37.62363 145.43243 3096 ft 103 kts 33°
2026-04-13 09:54 -37.61754 145.43772 3203 ft 115 kts 29°
2026-04-13 09:54 -37.61029 145.44355 3214 ft 131 kts 34°
2026-04-13 09:54 -37.60466 145.45254 3295 ft 134 kts 48°
2026-04-13 09:55 -37.59752 145.46011 3377 ft 135 kts 34°
2026-04-13 09:55 -37.59018 145.46706 3503 ft 130 kts 35°
2026-04-13 09:55 -37.58297 145.47386 3633 ft 130 kts 35°
2026-04-13 09:55 -37.57580 145.48061 3757 ft 128 kts 34°
2026-04-13 09:56 -37.56858 145.48740 3890 ft 132 kts 36°
2026-04-13 09:56 -37.56127 145.49429 3963 ft 132 kts 34°
2026-04-13 09:56 -37.55351 145.50035 3955 ft 130 kts 14°
2026-04-13 09:56 -37.54501 145.50060 3956 ft 117 kts 339°
2026-04-13 09:57 -37.53749 145.49713 3956 ft 115 kts 332°
2026-04-13 09:57 -37.53003 145.49367 3962 ft 112 kts 332°
2026-04-13 09:57 -37.52285 145.49029 3968 ft 113 kts 331°
2026-04-13 09:57 -37.51536 145.48677 3959 ft 114 kts 331°
2026-04-13 09:58 -37.50798 145.48331 3961 ft 114 kts 332°
2026-04-13 09:58 -37.50046 145.47981 3971 ft 117 kts 332°
2026-04-13 09:58 -37.49271 145.47618 3973 ft 120 kts 332°
2026-04-13 09:58 -37.48497 145.47256 3973 ft 117 kts 332°
2026-04-13 09:59 -37.47742 145.46902 3970 ft 114 kts 332°
2026-04-13 09:59 -37.47004 145.46554 3959 ft 113 kts 330°
2026-04-13 09:59 -37.46265 145.46207 3958 ft 114 kts 330°
2026-04-13 09:59 -37.45537 145.45866 3963 ft 111 kts 330°
2026-04-13 10:00 -37.44803 145.45521 3970 ft 115 kts 330°
2026-04-13 10:00 -37.44052 145.45172 3974 ft 118 kts 330°
2026-04-13 10:00 -37.43293 145.44818 3971 ft 114 kts 331°
2026-04-13 10:00 -37.42561 145.44476 3966 ft 111 kts 330°
2026-04-13 10:01 -37.41831 145.44131 3963 ft 113 kts 329°
2026-04-13 10:01 -37.41089 145.43784 3963 ft 115 kts 330°
2026-04-13 10:01 -37.40339 145.43434 3968 ft 115 kts 330°
2026-04-13 10:01 -37.39589 145.43084 3968 ft 115 kts 330°
2026-04-13 10:02 -37.38843 145.42735 3967 ft 114 kts 329°
2026-04-13 10:02 -37.38109 145.42394 3960 ft 108 kts 329°
2026-04-13 10:02 -37.37412 145.42064 3958 ft 109 kts 329°
2026-04-13 10:02 -37.36705 145.41720 3960 ft 112 kts 328°
2026-04-13 10:03 -37.35972 145.41352 3972 ft 115 kts 328°
2026-04-13 10:03 -37.35227 145.40973 3975 ft 115 kts 328°
2026-04-13 10:03 -37.34490 145.40596 3977 ft 114 kts 327°
2026-04-13 10:03 -37.33754 145.40211 3977 ft 116 kts 328°
2026-04-13 10:04 -37.33003 145.39810 3980 ft 119 kts 327°
2026-04-13 10:04 -37.32241 145.39403 3973 ft 118 kts 326°
2026-04-13 10:04 -37.31489 145.38999 3973 ft 118 kts 327°
2026-04-13 10:04 -37.30734 145.38587 3978 ft 120 kts 327°
2026-04-13 10:05 -37.29963 145.38168 3976 ft 121 kts 327°
2026-04-13 10:05 -37.29182 145.37744 3974 ft 124 kts 327°
2026-04-13 10:05 -37.28414 145.37335 3965 ft 119 kts 327°
2026-04-13 10:05 -37.27655 145.36964 3954 ft 118 kts 341°
2026-04-13 10:06 -37.26825 145.37045 3953 ft 117 kts 346°
2026-04-13 10:06 -37.26080 145.36753 3962 ft 113 kts 330°
2026-04-13 10:06 -37.25323 145.36417 3966 ft 116 kts 330°
2026-04-13 10:06 -37.24559 145.36070 3968 ft 117 kts 330°
2026-04-13 10:07 -37.23795 145.35717 3973 ft 117 kts 331°
2026-04-13 10:07 -37.23019 145.35358 3974 ft 120 kts 330°
2026-04-13 10:07 -37.22235 145.34997 3975 ft 118 kts 330°
2026-04-13 10:07 -37.21470 145.34640 3971 ft 117 kts 330°
2026-04-13 10:08 -37.20705 145.34283 3970 ft 118 kts 330°
2026-04-13 10:08 -37.20043 145.33768 3958 ft 106 kts 289°
2026-04-13 10:08 -37.19843 145.32943 3959 ft 99 kts 277°
2026-04-13 10:08 -37.19633 145.32117 3962 ft 99 kts 279°
2026-04-13 10:09 -37.19410 145.31294 3965 ft 100 kts 279°
2026-04-13 10:09 -37.19178 145.30470 3964 ft 100 kts 280°
2026-04-13 10:09 -37.18942 145.29649 3960 ft 100 kts 280°
2026-04-13 10:09 -37.18705 145.28829 3959 ft 100 kts 281°
2026-04-13 10:10 -37.18466 145.28010 3959 ft 100 kts 281°
2026-04-13 10:10 -37.18228 145.27195 3961 ft 99 kts 280°
2026-04-13 10:10 -37.17988 145.26375 3963 ft 101 kts 281°
2026-04-13 10:10 -37.17749 145.25561 3966 ft 100 kts 281°
2026-04-13 10:11 -37.17507 145.24738 3964 ft 100 kts 281°
2026-04-13 10:11 -37.17266 145.23918 3958 ft 99 kts 281°
2026-04-13 10:11 -37.17027 145.23104 3968 ft 101 kts 281°
2026-04-13 10:11 -37.16786 145.22281 3965 ft 101 kts 281°
2026-04-13 10:12 -37.16544 145.21454 3960 ft 101 kts 282°
2026-04-13 10:12 -37.16302 145.20631 3970 ft 102 kts 281°
2026-04-13 10:12 -37.16054 145.19790 3971 ft 103 kts 281°
2026-04-13 10:12 -37.15807 145.18952 3963 ft 101 kts 281°
2026-04-13 10:13 -37.15570 145.18147 3962 ft 99 kts 281°
2026-04-13 10:13 -37.15333 145.17337 3962 ft 99 kts 281°
2026-04-13 10:13 -37.15093 145.16522 3963 ft 101 kts 281°
2026-04-13 10:13 -37.14848 145.15691 3959 ft 101 kts 281°
2026-04-13 10:14 -37.14571 145.14886 3968 ft 104 kts 293°
2026-04-13 10:14 -37.14006 145.14249 3974 ft 117 kts 322°
2026-04-13 10:14 -37.13232 145.13965 3871 ft 117 kts 353°
2026-04-13 10:14 -37.12384 145.14168 3626 ft 123 kts 12°
2026-04-13 10:15 -37.11588 145.14403 3531 ft 106 kts
2026-04-13 10:15 -37.10939 145.14514 3536 ft 91 kts 359°
2026-04-13 10:15 -37.10331 145.14613 3569 ft 87 kts 358°
2026-04-13 10:15 -37.09694 145.14718 3694 ft 96 kts
2026-04-13 10:16 -37.09045 145.14847 3823 ft 92 kts
2026-04-13 10:16 -37.08374 145.14976 3782 ft 108 kts
2026-04-13 10:16 -37.07622 145.15134 3778 ft 111 kts
2026-04-13 10:16 -37.06890 145.15290 3776 ft 101 kts
2026-04-13 10:17 -37.06201 145.15422 3749 ft 104 kts
2026-04-13 10:17 -37.05445 145.15569 3666 ft 118 kts
2026-04-13 10:17 -37.04600 145.15743 3514 ft 126 kts
2026-04-13 10:17 -37.03733 145.15925 3338 ft 126 kts
2026-04-13 10:18 -37.02885 145.16098 3159 ft 125 kts
2026-04-13 10:18 -37.02023 145.16270 2981 ft 126 kts
2026-04-13 10:18 -37.01165 145.16443 2809 ft 125 kts
2026-04-13 10:18 -37.00325 145.16612 2636 ft 120 kts
2026-04-13 10:19 -36.99512 145.16775 2470 ft 116 kts
2026-04-13 10:19 -36.98714 145.16934 2316 ft 115 kts
2026-04-13 10:19 -36.97932 145.17089 2160 ft 112 kts
2026-04-13 10:19 -36.97160 145.17242 2005 ft 112 kts
2026-04-13 10:20 -36.96387 145.17395 1849 ft 112 kts
2026-04-13 10:20 -36.95630 145.17546 1700 ft 109 kts
2026-04-13 10:20 -36.94919 145.17692 1544 ft 99 kts
2026-04-13 10:20 -36.94270 145.17821 1413 ft 90 kts
2026-04-13 10:21 -36.93680 145.17934 1299 ft 82 kts
2026-04-13 10:21 -36.93127 145.18040 1181 ft 79 kts
2026-04-13 10:21 -36.92566 145.18148 1076 ft 84 kts
2026-04-13 10:21 -36.91981 145.18264 957 ft 87 kts
2026-04-13 10:22 -36.91384 145.18380 851 ft 85 kts
2026-04-13 10:22 -36.90810 145.18492 729 ft 81 kts
2026-04-13 10:22 -36.90259 145.18600 626 ft 78 kts
2026-04-13 10:22 -36.89740 145.18705 529 ft 75 kts
2026-04-13 10:23 -36.89254 145.18803 471 ft 61 kts
2026-04-13 10:23 -36.89054 145.18820 468 ft 6 kts 288°
2026-04-13 10:23 -36.89065 145.18759 469 ft 9 kts 277°
2026-04-13 10:23 -36.89056 145.18689 469 ft 11 kts 278°
2026-04-13 10:24 -36.89037 145.18537 467 ft 22 kts 281°
2026-04-13 10:24 -36.89024 145.18388 466 ft 7 kts 247°
2026-04-13 10:24 -36.89025 145.18386 466 ft 0 kts 238°